Time;durP1;ratioP1;P1;durP2;ratioP2;P2;SDS_P1;SDS_P2;PMS_P1;PMS_P2;Temp;Humidity;BMP_temperature;BMP_pressure;BME280_temperature;BME280_humidity;BME280_pressure;Samples;Min_cycle;Max_cycle;Signal;HPM_P1;HPM_P2
2023/08/17 00:01:50;;;;;;;7.23;6.53;;;18.20;99.90;;;;;;5162757;27;20252;-77
2023/08/17 00:04:16;;;;;;;7.70;6.87;;;18.20;99.90;;;;;;5162248;27;20238;-78
2023/08/17 00:06:42;;;;;;;8.00;7.20;;;18.30;99.90;;;;;;5152652;27;20233;-77
2023/08/17 00:09:09;;;;;;;8.67;7.87;;;18.30;99.90;;;;;;5144458;27;20243;-78
2023/08/17 00:11:36;;;;;;;8.67;7.97;;;18.30;99.90;;;;;;5143803;27;20177;-78
2023/08/17 00:14:01;;;;;;;9.33;8.43;;;18.40;99.90;;;;;;5143939;27;20169;-78
2023/08/17 00:16:27;;;;;;;8.27;7.47;;;18.40;99.90;;;;;;5141968;27;20628;-79
2023/08/17 00:18:53;;;;;;;8.07;7.40;;;18.40;99.90;;;;;;5152972;27;20169;-75
2023/08/17 00:21:19;;;;;;;8.10;7.17;;;18.40;99.90;;;;;;5140917;27;20220;-81
2023/08/17 00:23:44;;;;;;;7.77;7.17;;;18.40;99.90;;;;;;5144548;27;20691;-78
2023/08/17 00:26:10;;;;;;;8.00;6.97;;;18.40;99.90;;;;;;5157244;27;20849;-76
2023/08/17 00:28:36;;;;;;;8.13;7.43;;;18.40;99.90;;;;;;5137658;27;20219;-79
2023/08/17 00:31:02;;;;;;;7.70;7.00;;;18.40;99.90;;;;;;5137192;27;20170;-75
2023/08/17 00:33:29;;;;;;;7.80;7.20;;;18.40;99.90;;;;;;5137137;27;20173;-76
2023/08/17 00:35:54;;;;;;;7.83;7.03;;;18.40;99.90;;;;;;5146722;27;20191;-76
2023/08/17 00:38:20;;;;;;;8.00;7.40;;;18.70;99.90;;;;;;5153400;27;20178;-77
2023/08/17 00:40:47;;;;;;;8.30;7.50;;;18.40;99.90;;;;;;5137325;27;20216;-77
2023/08/17 00:43:12;;;;;;;8.53;7.63;;;18.50;99.90;;;;;;5137223;27;20195;-77
2023/08/17 00:45:39;;;;;;;8.13;7.37;;;18.40;99.90;;;;;;5136359;27;20181;-75
2023/08/17 00:48:07;;;;;;;8.23;7.53;;;18.40;99.90;;;;;;5136595;27;20225;-76
2023/08/17 00:50:34;;;;;;;7.23;6.67;;;18.40;99.90;;;;;;5148596;27;20222;-75
2023/08/17 00:53:01;;;;;;;6.90;6.40;;;18.40;99.90;;;;;;5158010;27;20177;-78
2023/08/17 00:55:28;;;;;;;7.47;6.87;;;18.40;99.90;;;;;;5137270;27;20173;-78
2023/08/17 00:57:55;;;;;;;7.40;6.70;;;18.40;99.90;;;;;;5137130;27;20161;-78
2023/08/17 01:00:23;;;;;;;8.23;7.33;;;18.40;99.90;;;;;;5137065;27;20690;-79
2023/08/17 01:02:49;;;;;;;9.03;7.57;;;18.40;99.90;;;;;;5136608;27;20252;-80
2023/08/17 01:05:15;;;;;;;8.60;7.80;;;18.40;99.90;;;;;;5136461;27;20514;-79
2023/08/17 01:07:41;;;;;;;8.83;8.00;;;18.30;99.90;;;;;;5136393;27;20181;-79
2023/08/17 01:10:08;;;;;;;9.27;8.47;;;18.30;99.90;;;;;;5137287;27;20699;-80
2023/08/17 01:12:55;;;;;;;8.57;7.67;;;18.30;99.90;;;;;;5142646;27;20181;-79
2023/08/17 01:15:44;;;;;;;8.87;7.97;;;18.40;99.90;;;;;;5151998;27;20157;-79
2023/08/17 01:18:33;;;;;;;8.93;8.13;;;18.30;99.90;;;;;;5135951;27;20272;-79
2023/08/17 01:21:00;;;;;;;8.00;7.40;;;18.40;99.90;;;;;;5136073;27;20209;-77
2023/08/17 01:23:26;;;;;;;8.57;7.67;;;18.40;99.90;;;;;;5134934;27;20669;-77
2023/08/17 01:25:53;;;;;;;9.07;8.27;;;18.40;99.90;;;;;;5134783;27;20180;-79
2023/08/17 01:28:19;;;;;;;8.93;8.03;;;18.40;99.90;;;;;;5136253;27;20176;-79
2023/08/17 01:30:48;;;;;;;9.43;8.40;;;18.30;99.90;;;;;;5136475;27;20207;-79
2023/08/17 01:33:24;;;;;;;10.47;8.50;;;18.20;99.90;;;;;;5138998;27;20192;-79
2023/08/17 01:36:07;;;;;;;8.93;8.07;;;18.20;99.90;;;;;;5139717;27;20175;-77
2023/08/17 01:38:35;;;;;;;8.80;8.00;;;18.30;99.90;;;;;;5137943;27;20200;-79
2023/08/17 01:41:03;;;;;;;9.80;8.90;;;18.30;99.90;;;;;;5134039;27;20219;-78
2023/08/17 01:43:29;;;;;;;9.93;8.33;;;18.30;99.90;;;;;;5137561;27;20195;-78
2023/08/17 01:45:55;;;;;;;9.43;8.53;;;18.40;99.90;;;;;;5154331;27;20157;-78
2023/08/17 01:48:21;;;;;;;8.70;8.00;;;18.30;99.90;;;;;;5148704;27;20172;-77
2023/08/17 01:50:47;;;;;;;9.47;8.60;;;18.30;99.90;;;;;;5137340;27;20177;-79
2023/08/17 01:53:13;;;;;;;8.37;7.67;;;18.20;99.90;;;;;;5135680;27;20252;-81
2023/08/17 01:55:39;;;;;;;11.47;8.33;;;18.30;99.90;;;;;;5140838;27;20165;-79
2023/08/17 01:58:05;;;;;;;8.37;7.63;;;18.30;99.90;;;;;;5135420;27;20161;-79
2023/08/17 02:00:31;;;;;;;7.87;7.27;;;18.20;99.90;;;;;;5135168;27;20224;-77
2023/08/17 02:02:56;;;;;;;7.33;6.57;;;18.20;99.90;;;;;;5146155;27;20173;-79
2023/08/17 02:05:22;;;;;;;6.97;6.43;;;18.20;99.90;;;;;;5146199;27;20177;-78
2023/08/17 02:07:48;;;;;;;7.30;6.77;;;18.10;99.90;;;;;;5135324;27;20165;-78
2023/08/17 02:10:14;;;;;;;8.17;6.67;;;17.90;99.90;;;;;;5135003;27;20234;-76
2023/08/17 02:12:39;;;;;;;10.93;7.37;;;17.80;99.90;;;;;;5135054;27;20200;-77
2023/08/17 02:15:06;;;;;;;6.87;6.37;;;17.80;99.90;;;;;;5152024;27;20168;-78
2023/08/17 02:17:32;;;;;;;7.93;7.13;;;17.90;99.90;;;;;;5151880;27;20168;-76
2023/08/17 02:19:57;;;;;;;7.93;7.00;;;17.80;99.90;;;;;;5134885;27;20551;-75
2023/08/17 02:22:23;;;;;;;8.27;7.40;;;17.80;99.90;;;;;;5115081;27;20173;-78
2023/08/17 02:24:49;;;;;;;7.67;6.87;;;17.80;99.90;;;;;;5114180;28;20635;-79
2023/08/17 02:27:15;;;;;;;8.80;7.00;;;17.80;99.90;;;;;;5114526;28;20170;-78
2023/08/17 02:29:40;;;;;;;8.10;7.30;;;18.30;99.90;;;;;;5114528;28;20191;-78
2023/08/17 02:32:06;;;;;;;8.40;7.70;;;17.80;99.90;;;;;;5114317;28;20200;-77
2023/08/17 02:34:32;;;;;;;8.80;6.80;;;17.80;99.90;;;;;;5114189;28;20169;-78
2023/08/17 02:36:58;;;;;;;7.87;7.20;;;17.80;99.90;;;;;;5133093;28;20174;-79
2023/08/17 02:39:23;;;;;;;7.47;6.87;;;17.90;99.90;;;;;;5127384;28;20177;-78
2023/08/17 02:41:49;;;;;;;6.73;6.13;;;17.90;99.90;;;;;;5114473;28;20185;-80
2023/08/17 02:44:15;;;;;;;8.03;7.33;;;17.90;99.90;;;;;;5114404;28;20165;-79
2023/08/17 02:46:41;;;;;;;8.90;8.07;;;17.90;99.90;;;;;;5113754;28;20268;-77
2023/08/17 02:49:07;;;;;;;9.47;7.93;;;17.90;99.90;;;;;;5113718;28;20299;-77
2023/08/17 02:51:32;;;;;;;8.47;7.80;;;18.00;99.90;;;;;;5115095;28;20655;-79
2023/08/17 02:53:58;;;;;;;8.73;7.83;;;18.00;99.90;;;;;;5118700;28;20173;-78
2023/08/17 02:56:24;;;;;;;9.33;8.27;;;18.00;99.90;;;;;;5130647;27;20226;-78
2023/08/17 02:58:50;;;;;;;9.20;8.30;;;17.90;99.90;;;;;;5132142;28;20197;-79
2023/08/17 03:01:15;;;;;;;8.73;7.93;;;18.00;99.90;;;;;;5117097;28;20706;-78
2023/08/17 03:03:41;;;;;;;9.43;8.63;;;18.00;99.90;;;;;;5118000;28;20618;-77
2023/08/17 03:06:08;;;;;;;9.73;8.93;;;18.00;99.90;;;;;;5118011;28;20230;-77
2023/08/17 03:08:33;;;;;;;10.43;9.43;;;18.00;99.90;;;;;;5123826;27;20183;-77
2023/08/17 03:11:01;;;;;;;10.03;9.13;;;18.00;99.90;;;;;;5132453;27;20186;-77
2023/08/17 03:13:26;;;;;;;10.67;9.53;;;18.30;99.90;;;;;;5118360;28;20659;-80
2023/08/17 03:15:52;;;;;;;11.27;10.13;;;18.10;99.90;;;;;;5117695;28;20182;-78
2023/08/17 03:18:18;;;;;;;10.93;9.93;;;18.20;99.90;;;;;;5117737;28;20244;-77
2023/08/17 03:20:45;;;;;;;9.80;8.90;;;18.20;99.90;;;;;;5118135;28;20721;-77
2023/08/17 03:23:11;;;;;;;13.00;10.00;;;18.20;99.90;;;;;;5116547;28;20173;-77
2023/08/17 03:25:37;;;;;;;10.47;9.57;;;18.30;99.90;;;;;;5116292;28;20170;-77
2023/08/17 03:28:03;;;;;;;10.63;9.73;;;18.30;99.90;;;;;;5116371;27;20185;-77
2023/08/17 03:30:30;;;;;;;11.03;10.03;;;18.20;99.90;;;;;;5120123;28;20208;-77
2023/08/17 03:37:26;;;;;;;10.40;9.50;;;18.20;99.90;;;;;;5137156;27;20680;-76
2023/08/17 03:40:59;;;;;;;10.47;8.93;;;18.10;99.90;;;;;;5074609;28;20316;-77
2023/08/17 03:44:58;;;;;;;9.93;9.03;;;18.20;99.90;;;;;;5039366;28;20184;-78
2023/08/17 03:48:28;;;;;;;10.00;9.00;;;18.20;99.90;;;;;;4937023;29;20220;-79
2023/08/17 03:54:53;;;;;;;10.03;9.13;;;18.00;99.90;;;;;;4898722;29;20288;-76
2023/08/17 03:57:19;;;;;;;10.73;9.70;;;18.10;99.90;;;;;;4899927;29;20236;-78
2023/08/17 03:59:45;;;;;;;11.30;10.20;;;18.10;99.90;;;;;;4898814;29;20225;-79
2023/08/17 04:02:11;;;;;;;11.73;10.53;;;18.10;99.90;;;;;;4898531;29;20633;-78
2023/08/17 04:04:36;;;;;;;12.50;11.20;;;18.10;99.90;;;;;;4898812;29;20193;-80
2023/08/17 04:07:02;;;;;;;11.53;10.43;;;18.20;99.90;;;;;;4898322;29;20256;-78
2023/08/17 04:09:28;;;;;;;12.67;9.77;;;18.20;99.90;;;;;;4898790;29;20838;-78
2023/08/17 04:11:54;;;;;;;12.20;9.90;;;18.20;99.90;;;;;;4898865;29;20203;-79
2023/08/17 04:14:20;;;;;;;10.93;9.93;;;18.10;99.90;;;;;;4915904;29;20184;-78
2023/08/17 04:16:46;;;;;;;11.60;10.50;;;18.10;99.90;;;;;;4917237;29;20648;-78
2023/08/17 04:19:12;;;;;;;11.10;10.00;;;18.10;99.90;;;;;;4937707;28;20643;-80
2023/08/17 04:21:37;;;;;;;12.33;10.50;;;18.10;99.90;;;;;;5018202;28;20204;-76
2023/08/17 04:24:04;;;;;;;12.37;11.17;;;18.10;99.90;;;;;;5033476;28;20199;-78
2023/08/17 04:26:29;;;;;;;11.63;10.43;;;18.20;99.90;;;;;;5037240;28;20722;-80
2023/08/17 04:28:55;;;;;;;12.40;11.10;;;18.20;99.90;;;;;;5094446;28;20314;-77
2023/08/17 04:31:21;;;;;;;12.43;11.20;;;18.20;99.90;;;;;;5094837;28;20260;-78
2023/08/17 04:33:47;;;;;;;11.40;10.20;;;18.30;99.90;;;;;;5106928;27;20189;-77
2023/08/17 04:36:12;;;;;;;11.93;10.77;;;18.40;99.90;;;;;;5115466;28;20592;-78
2023/08/17 04:38:38;;;;;;;11.93;10.63;;;18.40;99.90;;;;;;5117468;28;20541;-77
2023/08/17 04:41:04;;;;;;;11.57;10.43;;;18.40;99.90;;;;;;5151605;27;20204;-77
2023/08/17 04:43:30;;;;;;;11.63;10.53;;;18.40;99.90;;;;;;5139331;27;20165;-78
2023/08/17 04:45:55;;;;;;;10.57;9.63;;;18.50;99.90;;;;;;5136853;27;20169;-76
2023/08/17 04:48:21;;;;;;;11.93;10.43;;;18.50;99.90;;;;;;5136699;27;20628;-78
2023/08/17 04:50:47;;;;;;;11.73;10.50;;;18.50;99.90;;;;;;5135956;27;20180;-78
2023/08/17 04:53:14;;;;;;;11.90;10.80;;;18.50;99.90;;;;;;5136601;27;20176;-78
2023/08/17 04:55:40;;;;;;;11.60;10.30;;;18.50;99.90;;;;;;5135987;27;20165;-79
2023/08/17 04:58:06;;;;;;;11.37;10.17;;;18.50;99.90;;;;;;5136395;27;20173;-79
2023/08/17 05:00:31;;;;;;;11.67;10.60;;;18.50;99.90;;;;;;5135396;27;20244;-79
2023/08/17 05:02:58;;;;;;;12.33;11.13;;;18.50;99.90;;;;;;5139914;27;20209;-79
2023/08/17 05:05:24;;;;;;;13.20;10.83;;;18.60;99.90;;;;;;5146057;27;20177;-79
2023/08/17 05:07:50;;;;;;;10.50;9.60;;;18.70;99.90;;;;;;5136461;27;20701;-78
2023/08/17 05:10:15;;;;;;;10.07;9.17;;;18.80;99.90;;;;;;5135883;27;20191;-78
2023/08/17 05:12:41;;;;;;;9.80;8.90;;;18.90;99.90;;;;;;5136287;27;20165;-75
2023/08/17 05:15:07;;;;;;;8.80;8.10;;;18.90;99.90;;;;;;5134720;27;20208;-77
2023/08/17 05:17:33;;;;;;;8.83;8.03;;;19.00;99.90;;;;;;5135904;27;20244;-77
2023/08/17 05:19:59;;;;;;;9.50;8.60;;;18.90;99.90;;;;;;5142162;27;20211;-78
2023/08/17 05:22:25;;;;;;;9.00;8.10;;;19.00;99.90;;;;;;5154138;27;20187;-76
2023/08/17 05:24:50;;;;;;;8.93;8.13;;;19.00;99.90;;;;;;5160676;27;20176;-77
2023/08/17 05:27:16;;;;;;;9.27;8.47;;;19.20;99.90;;;;;;5156599;27;20172;-80
2023/08/17 05:29:42;;;;;;;9.20;8.30;;;19.20;99.90;;;;;;5158101;27;20214;-83
2023/08/17 05:32:08;;;;;;;8.80;7.73;;;19.20;99.90;;;;;;5172076;27;20196;-81
2023/08/17 05:34:33;;;;;;;9.23;8.33;;;19.30;99.90;;;;;;5158636;27;20193;-81
2023/08/17 05:36:59;;;;;;;10.57;9.33;;;19.40;99.90;;;;;;5136844;27;20623;-80
2023/08/17 05:39:26;;;;;;;10.33;9.33;;;19.30;99.90;;;;;;5136507;27;20180;-80
2023/08/17 05:41:51;;;;;;;11.33;10.23;;;19.40;99.90;;;;;;5134118;27;20189;-82
2023/08/17 05:44:18;;;;;;;10.73;9.73;;;19.50;99.90;;;;;;5135618;27;20177;-80
2023/08/17 05:46:43;;;;;;;11.43;9.80;;;19.50;99.90;;;;;;5135214;27;20177;-78
2023/08/17 05:49:09;;;;;;;11.70;10.50;;;19.60;99.90;;;;;;5135396;27;20166;-79
2023/08/17 05:51:35;;;;;;;11.53;10.30;;;19.60;99.90;;;;;;5135222;27;20244;-80
2023/08/17 05:54:01;;;;;;;10.83;9.83;;;19.60;99.90;;;;;;5138086;27;20624;-82
2023/08/17 05:56:28;;;;;;;10.53;9.53;;;19.70;99.90;;;;;;5144133;27;20700;-80
2023/08/17 05:58:54;;;;;;;10.33;9.10;;;19.80;99.90;;;;;;5157917;27;20165;-80
2023/08/17 06:01:21;;;;;;;10.43;9.50;;;19.90;99.90;;;;;;5158667;27;20277;-79
2023/08/17 06:03:47;;;;;;;10.27;9.27;;;20.10;99.90;;;;;;5145842;27;20169;-77
2023/08/17 06:06:13;;;;;;;11.47;10.20;;;20.10;99.90;;;;;;5138443;27;20176;-79
2023/08/17 06:08:38;;;;;;;10.97;9.43;;;20.30;99.90;;;;;;5135642;27;20169;-80
2023/08/17 06:11:04;;;;;;;10.00;9.10;;;20.30;99.90;;;;;;5135307;27;20180;-80
2023/08/17 06:13:30;;;;;;;9.67;8.73;;;20.30;99.90;;;;;;5134673;27;20615;-79
2023/08/17 06:15:59;;;;;;;9.77;8.87;;;20.30;99.90;;;;;;5135123;27;20180;-79
2023/08/17 06:18:25;;;;;;;9.33;8.33;;;20.40;99.90;;;;;;5134957;27;20172;-76
2023/08/17 06:20:53;;;;;;;10.40;9.50;;;20.50;99.90;;;;;;5135299;27;20197;-79
2023/08/17 06:23:19;;;;;;;11.00;9.10;;;20.60;99.90;;;;;;5137497;27;20621;-81
2023/08/17 06:25:45;;;;;;;9.73;8.93;;;20.70;99.90;;;;;;5143135;27;20233;-76
2023/08/17 06:28:11;;;;;;;10.03;9.07;;;20.80;99.90;;;;;;5136519;27;20620;-80
2023/08/17 06:30:37;;;;;;;9.97;9.03;;;20.80;99.90;;;;;;5134700;27;20176;-77
2023/08/17 06:33:04;;;;;;;9.80;9.00;;;20.90;99.90;;;;;;5134957;27;20161;-78
2023/08/17 06:35:30;;;;;;;9.23;8.27;;;21.10;99.90;;;;;;5134615;27;20554;-78
2023/08/17 06:37:57;;;;;;;9.50;8.70;;;21.30;99.90;;;;;;5136260;27;20161;-78
2023/08/17 06:40:27;;;;;;;9.53;8.73;;;21.30;99.90;;;;;;5138849;27;20559;-76
2023/08/17 06:42:54;;;;;;;9.70;8.80;;;21.40;99.90;;;;;;5135115;27;20169;-78
2023/08/17 06:45:20;;;;;;;9.73;8.80;;;21.40;99.90;;;;;;5134575;27;20169;-77
2023/08/17 06:47:48;;;;;;;9.10;8.30;;;21.40;99.90;;;;;;5134673;27;20165;-78
2023/08/17 06:50:20;;;;;;;10.03;8.93;;;21.40;99.90;;;;;;5135047;27;20161;-77
2023/08/17 06:52:46;;;;;;;9.50;8.60;;;21.50;99.90;;;;;;5134075;27;20242;-76
2023/08/17 06:55:12;;;;;;;9.70;8.70;;;21.40;99.90;;;;;;5134823;27;20524;-78
2023/08/17 06:57:37;;;;;;;9.50;8.70;;;21.40;99.90;;;;;;5135248;27;20623;-82
2023/08/17 07:00:07;;;;;;;10.30;9.40;;;21.40;99.90;;;;;;5148065;27;20209;-79
2023/08/17 07:02:36;;;;;;;10.13;9.13;;;21.40;99.90;;;;;;5151550;27;20162;-78
2023/08/17 07:05:03;;;;;;;9.47;8.63;;;21.50;99.90;;;;;;5139383;27;20222;-78
2023/08/17 07:07:31;;;;;;;9.53;8.63;;;21.60;99.90;;;;;;5139949;28;20165;-78
2023/08/17 07:09:57;;;;;;;8.93;8.10;;;21.70;99.90;;;;;;5143323;27;20173;-79
2023/08/17 07:12:26;;;;;;;9.83;9.03;;;21.80;99.90;;;;;;5146254;27;20696;-79
2023/08/17 07:14:53;;;;;;;9.17;8.33;;;21.80;99.90;;;;;;5136087;27;20169;-79
2023/08/17 07:17:19;;;;;;;9.30;8.40;;;21.80;99.90;;;;;;5133780;28;20185;-77
2023/08/17 07:19:44;;;;;;;9.00;8.10;;;21.80;99.90;;;;;;5134612;27;20196;-79
2023/08/17 07:22:10;;;;;;;8.33;7.60;;;21.90;99.90;;;;;;5134830;27;20169;-78
2023/08/17 07:24:36;;;;;;;8.20;7.50;;;22.00;99.90;;;;;;5133338;28;20208;-76
2023/08/17 07:27:02;;;;;;;7.83;7.03;;;22.10;99.90;;;;;;5137775;27;20169;-76
2023/08/17 07:29:28;;;;;;;7.60;7.00;;;22.20;99.90;;;;;;5138966;27;20245;-76
2023/08/17 07:31:54;;;;;;;7.25;6.65;;;22.30;99.90;;;;;;5137044;27;20169;-80
2023/08/17 07:34:20;;;;;;;7.40;6.83;;;22.30;99.90;;;;;;5134009;27;20162;-78
2023/08/17 07:36:46;;;;;;;7.07;6.57;;;22.40;99.90;;;;;;5134333;27;20166;-77
2023/08/17 07:39:11;;;;;;;6.27;5.80;;;22.50;99.90;;;;;;5138021;27;20873;-77
2023/08/17 07:41:38;;;;;;;6.57;6.07;;;22.40;99.90;;;;;;5137652;27;20261;-76
2023/08/17 07:44:04;;;;;;;6.80;6.20;;;22.40;99.90;;;;;;5136516;27;20574;-76
2023/08/17 07:46:30;;;;;;;6.17;5.70;;;22.40;99.90;;;;;;5137910;27;20176;-78
2023/08/17 07:48:56;;;;;;;6.10;5.70;;;22.40;99.90;;;;;;5136201;27;20173;-76
2023/08/17 07:51:21;;;;;;;6.20;5.60;;;22.30;99.90;;;;;;5137569;27;20173;-76
2023/08/17 07:53:47;;;;;;;6.77;6.27;;;22.30;99.90;;;;;;5137766;27;20561;-77
2023/08/17 07:56:13;;;;;;;6.53;6.03;;;22.30;99.90;;;;;;5136343;27;20691;-76
2023/08/17 07:58:39;;;;;;;10.67;6.30;;;22.40;99.90;;;;;;5138393;27;20177;-78
2023/08/17 08:01:05;;;;;;;6.47;5.87;;;22.50;99.90;;;;;;5138406;27;20212;-78
2023/08/17 08:03:31;;;;;;;6.47;5.90;;;22.60;99.90;;;;;;5138083;27;20165;-79
2023/08/17 08:05:57;;;;;;;5.97;5.50;;;22.70;99.90;;;;;;5142094;27;20196;-78
2023/08/17 08:08:22;;;;;;;6.17;5.73;;;22.80;99.90;;;;;;5135846;27;20217;-76
2023/08/17 08:10:48;;;;;;;5.55;5.15;;;23.00;99.90;;;;;;5137992;27;20235;-77
2023/08/17 08:13:14;;;;;;;5.75;5.25;;;23.00;99.90;;;;;;5137579;27;20165;-77
2023/08/17 08:15:40;;;;;;;6.10;5.70;;;23.10;99.90;;;;;;5141331;27;20204;-77
2023/08/17 08:18:05;;;;;;;5.57;5.25;;;23.20;99.90;;;;;;5141310;27;20257;-77
2023/08/17 08:20:31;;;;;;;5.70;5.30;;;23.20;99.90;;;;;;5136274;27;20205;-76
2023/08/17 08:22:57;;;;;;;6.20;5.68;;;23.20;99.90;;;;;;5137777;27;20170;-77
2023/08/17 08:25:24;;;;;;;10.15;6.07;;;23.30;99.90;;;;;;5135533;27;20248;-76
2023/08/17 08:27:49;;;;;;;5.85;5.43;;;23.30;99.90;;;;;;5137244;27;20608;-77
2023/08/17 08:30:16;;;;;;;5.97;5.47;;;23.40;99.90;;;;;;5136928;27;20244;-78
2023/08/17 08:32:42;;;;;;;6.50;5.85;;;23.60;99.90;;;;;;5136921;27;20169;-80
2023/08/17 08:35:08;;;;;;;5.80;5.35;;;23.60;99.90;;;;;;5136905;27;20672;-80
2023/08/17 08:37:34;;;;;;;5.80;5.30;;;23.70;99.90;;;;;;5155099;27;20211;-80
2023/08/17 08:40:00;;;;;;;6.05;5.65;;;23.90;99.90;;;;;;5142422;27;20201;-78
2023/08/17 08:42:26;;;;;;;5.88;5.40;;;23.90;99.90;;;;;;5139242;27;20230;-78
2023/08/17 08:44:52;;;;;;;6.78;5.85;;;23.70;99.90;;;;;;5137167;27;20527;-78
2023/08/17 08:47:18;;;;;;;6.07;5.53;;;23.70;99.90;;;;;;5140648;27;20217;-79
2023/08/17 08:50:03;;;;;;;6.00;5.53;;;23.80;99.90;;;;;;5151199;27;20173;-79
2023/08/17 08:52:34;;;;;;;5.97;5.57;;;23.70;99.90;;;;;;5136559;27;20179;-80
2023/08/17 08:55:09;;;;;;;6.25;5.75;;;23.70;99.90;;;;;;5136074;27;20177;-77
2023/08/17 08:57:35;;;;;;;6.07;5.60;;;23.90;99.90;;;;;;5137068;27;20212;-77
2023/08/17 09:00:02;;;;;;;6.13;5.72;;;23.90;99.90;;;;;;5135334;27;20205;-78
2023/08/17 09:02:29;;;;;;;6.22;5.70;;;24.00;99.90;;;;;;5136721;27;20528;-79
2023/08/17 09:04:56;;;;;;;5.57;5.15;;;24.00;99.90;;;;;;5134700;27;20233;-78
2023/08/17 09:07:23;;;;;;;6.85;6.25;;;24.10;99.90;;;;;;5136833;27;20161;-83
2023/08/17 09:09:49;;;;;;;6.50;6.00;;;24.20;99.90;;;;;;5136843;27;20162;-79
2023/08/17 09:12:15;;;;;;;5.70;5.22;;;24.30;99.90;;;;;;5136446;27;20173;-83
2023/08/17 09:14:41;;;;;;;5.95;5.55;;;24.30;99.90;;;;;;5136398;27;20169;-79
2023/08/17 09:17:08;;;;;;;5.75;5.43;;;24.30;99.90;;;;;;5136001;27;20173;-79
2023/08/17 09:19:34;;;;;;;6.35;5.85;;;24.30;99.90;;;;;;5135885;27;20640;-76
2023/08/17 09:22:02;;;;;;;7.35;6.60;;;24.20;99.90;;;;;;5136516;27;20173;-81
2023/08/17 09:24:37;;;;;;;6.05;5.60;;;24.30;99.90;;;;;;5137024;27;20624;-79
2023/08/17 09:27:04;;;;;;;5.75;5.35;;;24.40;99.90;;;;;;5140430;27;20211;-81
2023/08/17 09:29:37;;;;;;;5.60;5.20;;;24.50;99.90;;;;;;5140741;27;20169;-78
2023/08/17 09:32:07;;;;;;;6.28;5.68;;;24.60;99.90;;;;;;5138988;27;20175;-80
2023/08/17 09:34:33;;;;;;;5.35;4.95;;;24.60;99.90;;;;;;5136579;27;20549;-79
2023/08/17 09:37:05;;;;;;;5.90;5.35;;;24.70;99.90;;;;;;5136976;27;20167;-78
2023/08/17 09:39:31;;;;;;;6.03;5.63;;;24.70;99.90;;;;;;5136248;27;20203;-79
2023/08/17 09:41:57;;;;;;;6.03;5.60;;;24.80;99.90;;;;;;5136103;27;20543;-78
2023/08/17 09:44:23;;;;;;;5.78;5.32;;;24.80;99.90;;;;;;5143838;27;20165;-77
2023/08/17 09:46:49;;;;;;;5.85;5.40;;;24.80;99.90;;;;;;5152050;27;20176;-77
2023/08/17 09:49:16;;;;;;;5.15;4.85;;;24.60;99.90;;;;;;5140677;27;20572;-81
2023/08/17 09:51:43;;;;;;;5.40;5.10;;;24.60;99.90;;;;;;5147526;27;20188;-78
2023/08/17 09:54:31;;;;;;;6.13;5.63;;;24.70;99.90;;;;;;5146299;27;20192;-78
2023/08/17 09:56:58;;;;;;;5.65;5.25;;;24.70;99.90;;;;;;5135160;27;20229;-79
2023/08/17 09:59:25;;;;;;;5.55;5.15;;;24.80;99.90;;;;;;5135983;27;20181;-79
2023/08/17 10:01:51;;;;;;;5.88;5.35;;;24.90;99.90;;;;;;5135565;27;20194;-82
2023/08/17 10:04:22;;;;;;;5.25;4.93;;;24.90;99.90;;;;;;5140499;27;20173;-79
2023/08/17 10:07:01;;;;;;;5.20;4.90;;;25.00;99.90;;;;;;5134126;27;20193;-81
2023/08/17 10:09:39;;;;;;;5.82;5.35;;;24.90;99.90;;;;;;5134494;27;20254;-78
2023/08/17 10:12:15;;;;;;;5.38;5.03;;;24.80;99.90;;;;;;5135111;27;20153;-78
2023/08/17 10:14:48;;;;;;;6.32;5.78;;;24.60;99.90;;;;;;5147482;27;20165;-78
2023/08/17 10:17:24;;;;;;;5.68;5.20;;;24.70;99.90;;;;;;5139129;27;20173;-79
2023/08/17 10:19:54;;;;;;;5.28;4.97;;;24.80;99.90;;;;;;5135071;27;20644;-79
2023/08/17 10:22:33;;;;;;;5.95;5.55;;;24.80;99.90;;;;;;5134888;27;20153;-80
2023/08/17 10:25:01;;;;;;;5.72;5.30;;;24.90;99.90;;;;;;5140219;27;20177;-79
2023/08/17 10:27:27;;;;;;;6.07;5.57;;;25.10;99.90;;;;;;5158944;27;20237;-77
2023/08/17 10:29:53;;;;;;;5.68;5.18;;;25.20;99.90;;;;;;5156246;27;20891;-80
2023/08/17 10:32:23;;;;;;;5.90;5.45;;;25.50;99.90;;;;;;5155434;27;20255;-78
2023/08/17 10:34:50;;;;;;;5.88;5.47;;;25.70;99.90;;;;;;5155401;27;20161;-79
2023/08/17 10:37:18;;;;;;;5.85;5.40;;;25.90;99.90;;;;;;5155231;27;20516;-79
2023/08/17 10:39:48;;;;;;;6.13;5.63;;;26.00;99.90;;;;;;5154993;27;20172;-79
2023/08/17 10:42:16;;;;;;;6.47;6.07;;;26.10;99.90;;;;;;5155046;27;20176;-77
2023/08/17 10:44:47;;;;;;;5.95;5.53;;;26.20;99.90;;;;;;5155230;27;20174;-78
2023/08/17 10:47:22;;;;;;;6.75;5.72;;;26.20;99.90;;;;;;5154294;27;20176;-78
2023/08/17 10:49:50;;;;;;;5.80;5.40;;;26.20;99.90;;;;;;5155417;27;20163;-77
2023/08/17 10:52:51;;;;;;;5.78;5.28;;;26.20;99.90;;;;;;5155618;27;20173;-77
2023/08/17 10:55:18;;;;;;;8.35;6.05;;;26.30;99.90;;;;;;5151789;27;20183;-81
2023/08/17 10:57:45;;;;;;;6.38;5.85;;;26.50;99.90;;;;;;5155216;27;20761;-82
2023/08/17 11:00:26;;;;;;;5.78;5.28;;;26.10;99.90;;;;;;5156087;27;20204;-80
2023/08/17 11:03:01;;;;;;;6.50;5.70;;;26.50;99.90;;;;;;5156278;27;20161;-84
2023/08/17 11:05:43;;;;;;;6.35;5.85;;;26.50;99.90;;;;;;5155290;27;20157;-78
2023/08/17 11:08:31;;;;;;;5.78;5.35;;;26.70;99.90;;;;;;5155190;27;20171;-79
2023/08/17 11:11:15;;;;;;;5.47;5.18;;;26.80;99.90;;;;;;5154942;27;20164;-78
2023/08/17 11:13:44;;;;;;;7.03;5.35;;;26.80;99.90;;;;;;5158347;27;20175;-77
2023/08/17 11:16:12;;;;;;;5.60;5.20;;;26.60;99.90;;;;;;5158749;27;20164;-78
2023/08/17 11:18:38;;;;;;;6.07;5.50;;;26.60;99.90;;;;;;5159164;27;20263;-77
2023/08/17 11:21:05;;;;;;;5.47;5.18;;;26.60;99.90;;;;;;5158688;27;20233;-78
2023/08/17 11:23:32;;;;;;;5.22;4.93;;;26.60;99.90;;;;;;5158158;27;20184;-76
2023/08/17 11:25:58;;;;;;;5.05;4.65;;;26.60;99.90;;;;;;5146805;27;20177;-78
2023/08/17 11:28:25;;;;;;;7.63;7.05;;;26.50;99.90;;;;;;5149619;27;20651;-78
2023/08/17 11:31:02;;;;;;;5.45;5.15;;;26.50;99.90;;;;;;5142546;27;20177;-81
2023/08/17 11:33:29;;;;;;;6.18;5.68;;;26.50;99.90;;;;;;5145102;27;20218;-81
2023/08/17 11:35:59;;;;;;;5.75;5.35;;;26.50;99.90;;;;;;5148028;27;20169;-80
2023/08/17 11:38:26;;;;;;;5.53;5.10;;;26.40;99.90;;;;;;5165084;27;20725;-82
2023/08/17 11:40:52;;;;;;;5.03;4.72;;;26.40;99.90;;;;;;5162880;27;20288;-81
2023/08/17 11:43:20;;;;;;;5.25;4.93;;;26.40;99.90;;;;;;5160108;27;20168;-78
2023/08/17 11:45:46;;;;;;;5.80;5.30;;;26.50;99.90;;;;;;5158744;27;20526;-78
2023/08/17 11:48:12;;;;;;;5.35;5.03;;;26.50;99.90;;;;;;5158870;27;20251;-81
2023/08/17 11:50:39;;;;;;;5.50;5.18;;;26.50;99.90;;;;;;5158728;27;20638;-80
2023/08/17 11:53:05;;;;;;;6.40;5.40;;;26.50;99.90;;;;;;5159309;27;20185;-77
2023/08/17 11:55:31;;;;;;;5.90;5.10;;;26.60;99.90;;;;;;5138051;27;20661;-77
2023/08/17 11:57:57;;;;;;;5.82;5.43;;;26.70;99.90;;;;;;5137760;27;20260;-77
2023/08/17 12:00:24;;;;;;;5.60;5.10;;;26.80;99.90;;;;;;5137534;27;20269;-78
2023/08/17 12:02:51;;;;;;;4.80;4.50;;;26.90;99.90;;;;;;5139785;27;20165;-79
2023/08/17 12:05:23;;;;;;;4.72;4.32;;;27.00;99.90;;;;;;5161451;27;20177;-79
2023/08/17 12:07:50;;;;;;;4.78;4.38;;;26.80;99.90;;;;;;5146570;27;20620;-77
2023/08/17 12:10:18;;;;;;;5.07;4.78;;;26.80;99.90;;;;;;5137755;27;20173;-81
2023/08/17 12:12:44;;;;;;;5.28;4.55;;;26.80;99.90;;;;;;5136169;27;20175;-78
2023/08/17 12:15:11;;;;;;;4.95;4.55;;;26.80;99.90;;;;;;5137349;27;20535;-82
2023/08/17 12:17:45;;;;;;;4.85;4.45;;;26.80;99.90;;;;;;5137180;27;20246;-82
2023/08/17 12:20:19;;;;;;;5.00;4.50;;;26.70;99.90;;;;;;5137038;27;20288;-81
2023/08/17 12:22:48;;;;;;;4.50;4.30;;;26.80;99.90;;;;;;5136770;27;20165;-82
2023/08/17 12:25:14;;;;;;;5.53;5.22;;;26.90;99.90;;;;;;5137075;27;20177;-81
2023/08/17 12:27:40;;;;;;;5.70;4.60;;;26.90;99.90;;;;;;5136566;27;20539;-80
2023/08/17 12:30:25;;;;;;;4.65;4.35;;;27.00;99.90;;;;;;5148158;27;20250;-82
2023/08/17 12:32:50;;;;;;;5.15;4.85;;;27.10;99.90;;;;;;5137847;27;20252;-82
2023/08/17 12:35:16;;;;;;;4.68;4.38;;;27.10;99.90;;;;;;5137002;27;20220;-82
2023/08/17 12:37:42;;;;;;;4.60;4.30;;;27.00;99.90;;;;;;5136883;27;20174;-83
2023/08/17 12:40:09;;;;;;;4.78;4.47;;;27.10;99.90;;;;;;5136555;27;20203;-83
2023/08/17 12:42:35;;;;;;;5.10;4.70;;;27.10;99.90;;;;;;5136729;27;20226;-79
2023/08/17 12:45:01;;;;;;;4.63;4.40;;;27.20;99.90;;;;;;5138114;27;20177;-81
2023/08/17 12:47:27;;;;;;;4.93;4.63;;;27.30;99.90;;;;;;5141865;27;20177;-81
2023/08/17 12:49:53;;;;;;;5.13;4.55;;;27.40;99.90;;;;;;5143155;27;20184;-78
2023/08/17 12:52:19;;;;;;;4.75;4.50;;;27.40;99.90;;;;;;5136978;27;20638;-84
2023/08/17 12:54:44;;;;;;;4.18;3.97;;;27.50;99.90;;;;;;5136301;27;20255;-81
2023/08/17 12:57:10;;;;;;;4.72;4.47;;;27.60;99.90;;;;;;5136142;27;20225;-79